PUA2601 SAZN-SUMU
Flight info
| Callsign | PUA2601 |
|---|---|
| Flight time | N/A |
| Altitude | 37000 |
| Route | ISMIL UT655 ASADA UM424 TOKAM |
| Aircraft | B738/M-SDE2E3FGHIRWXY/LB1 |
Departure
| Time | 2026-04-16 04:31 |
|---|---|
| Airport | Presidente Perón International Airport (SAZN) |
Arrival
| Time | N/A |
|---|---|
| Airport | Carrasco General Cesáreo L. Berisso International Airport (SUMU) |
| Time | Latitude | Longitude | Altitude | Speed | Heading |
|---|---|---|---|---|---|
| 2026-04-16 03:54 | -38.95147 | -68.14126 | 904 ft | 0 kts | 217° |
| 2026-04-16 04:17 | -38.95138 | -68.14117 | 904 ft | 2 kts | 217° |
| 2026-04-16 04:18 | -38.95125 | -68.14105 | 904 ft | 2 kts | 217° |
| 2026-04-16 04:18 | -38.95112 | -68.14092 | 904 ft | 2 kts | 217° |
| 2026-04-16 04:18 | -38.95099 | -68.14080 | 904 ft | 2 kts | 217° |
| 2026-04-16 04:18 | -38.95087 | -68.14067 | 904 ft | 2 kts | 217° |
| 2026-04-16 04:19 | -38.95076 | -68.14057 | 904 ft | 0 kts | 217° |
| 2026-04-16 04:19 | -38.95075 | -68.14056 | 904 ft | 0 kts | 217° |
| 2026-04-16 04:24 | -38.95085 | -68.14068 | 904 ft | 6 kts | 227° |
| 2026-04-16 04:24 | -38.95105 | -68.14169 | 904 ft | 17 kts | 271° |
| 2026-04-16 04:24 | -38.95102 | -68.14314 | 904 ft | 17 kts | 271° |
| 2026-04-16 04:25 | -38.95101 | -68.14469 | 904 ft | 18 kts | 269° |
| 2026-04-16 04:25 | -38.95100 | -68.14620 | 904 ft | 16 kts | 271° |
| 2026-04-16 04:25 | -38.95099 | -68.14776 | 904 ft | 19 kts | 270° |
| 2026-04-16 04:25 | -38.95066 | -68.14930 | 904 ft | 15 kts | 311° |
| 2026-04-16 04:26 | -38.95012 | -68.15000 | 904 ft | 0 kts | 316° |
| 2026-04-16 04:27 | -38.95010 | -68.15002 | 904 ft | 3 kts | 317° |
| 2026-04-16 04:27 | -38.94961 | -68.15058 | 904 ft | 16 kts | 316° |
| 2026-04-16 04:28 | -38.94908 | -68.15205 | 904 ft | 20 kts | 271° |
| 2026-04-16 04:28 | -38.94907 | -68.15385 | 904 ft | 19 kts | 271° |
| 2026-04-16 04:28 | -38.94906 | -68.15570 | 904 ft | 21 kts | 270° |
| 2026-04-16 04:28 | -38.94905 | -68.15740 | 904 ft | 18 kts | 269° |
| 2026-04-16 04:29 | -38.94905 | -68.15913 | 904 ft | 20 kts | 271° |
| 2026-04-16 04:29 | -38.94904 | -68.16091 | 904 ft | 20 kts | 269° |
| 2026-04-16 04:29 | -38.94904 | -68.16267 | 904 ft | 18 kts | 270° |
| 2026-04-16 04:29 | -38.94904 | -68.16437 | 904 ft | 19 kts | 270° |
| 2026-04-16 04:30 | -38.94903 | -68.16614 | 904 ft | 21 kts | 271° |
| 2026-04-16 04:30 | -38.94903 | -68.16787 | 904 ft | 20 kts | 270° |
| 2026-04-16 04:30 | -38.94924 | -68.16949 | 904 ft | 16 kts | 236° |
| 2026-04-16 04:30 | -38.94901 | -68.17025 | 904 ft | 10 kts | 46° |
| 2026-04-16 04:31 | -38.94899 | -68.16922 | 904 ft | 27 kts | 91° |
| 2026-04-16 04:31 | -38.94905 | -68.16283 | 904 ft | 112 kts | 90° |
| 2026-04-16 04:31 | -38.94913 | -68.15018 | 1131 ft | 157 kts | 90° |
| 2026-04-16 04:31 | -38.94931 | -68.13558 | 1878 ft | 170 kts | 91° |
| 2026-04-16 04:32 | -38.94864 | -68.12075 | 3039 ft | 160 kts | 79° |
| 2026-04-16 04:32 | -38.94460 | -68.10717 | 3973 ft | 170 kts | 57° |
| 2026-04-16 04:32 | -38.93722 | -68.09396 | 4633 ft | 195 kts | 51° |
| 2026-04-16 04:32 | -38.92875 | -68.07846 | 5138 ft | 231 kts | 53° |
| 2026-04-16 04:33 | -38.92005 | -68.06016 | 6005 ft | 248 kts | 57° |
| 2026-04-16 04:33 | -38.91224 | -68.03930 | 6886 ft | 268 kts | 61° |
| 2026-04-16 04:33 | -38.90443 | -68.01706 | 7851 ft | 281 kts | 60° |
| 2026-04-16 04:33 | -38.89565 | -67.99404 | 8716 ft | 294 kts | 58° |
| 2026-04-16 04:34 | -38.88621 | -67.97020 | 9686 ft | 303 kts | 58° |
| 2026-04-16 04:34 | -38.87638 | -67.94570 | 10602 ft | 313 kts | 58° |
| 2026-04-16 04:34 | -38.86907 | -67.92761 | 11126 ft | 325 kts | 58° |
| 2026-04-16 04:34 | -38.85811 | -67.90066 | 11595 ft | 349 kts | 59° |
| 2026-04-16 04:35 | -38.84646 | -67.87215 | 12087 ft | 370 kts | 59° |
| 2026-04-16 04:35 | -38.83426 | -67.84248 | 12923 ft | 378 kts | 59° |
| 2026-04-16 04:35 | -38.82207 | -67.81297 | 13815 ft | 383 kts | 59° |
| 2026-04-16 04:35 | -38.80939 | -67.78235 | 14695 ft | 388 kts | 59° |
| 2026-04-16 04:36 | -38.79656 | -67.75145 | 15537 ft | 393 kts | 59° |
| 2026-04-16 04:36 | -38.78365 | -67.72045 | 16308 ft | 398 kts | 60° |
| 2026-04-16 04:36 | -38.77052 | -67.68852 | 17063 ft | 403 kts | 60° |
| 2026-04-16 04:36 | -38.75736 | -67.65664 | 17785 ft | 408 kts | 60° |
| 2026-04-16 04:37 | -38.74397 | -67.62431 | 18474 ft | 412 kts | 60° |
| 2026-04-16 04:37 | -38.73066 | -67.59227 | 19101 ft | 417 kts | 60° |
| 2026-04-16 04:37 | -38.71686 | -67.55916 | 19719 ft | 422 kts | 59° |
| 2026-04-16 04:37 | -38.70310 | -67.52622 | 20346 ft | 425 kts | 59° |
| 2026-04-16 04:38 | -38.68877 | -67.49200 | 20967 ft | 428 kts | 59° |
| 2026-04-16 04:38 | -38.67481 | -67.45871 | 21545 ft | 432 kts | 60° |
| 2026-04-16 04:38 | -38.66079 | -67.42530 | 22103 ft | 434 kts | 60° |
| 2026-04-16 04:38 | -38.64622 | -67.39067 | 22651 ft | 437 kts | 60° |
| 2026-04-16 04:39 | -38.63168 | -67.35614 | 23175 ft | 440 kts | 60° |
| 2026-04-16 04:39 | -38.61712 | -67.32159 | 23673 ft | 443 kts | 60° |
| 2026-04-16 04:39 | -38.60274 | -67.28752 | 24144 ft | 445 kts | 60° |
| 2026-04-16 04:39 | -38.58760 | -67.25168 | 24615 ft | 448 kts | 60° |
| 2026-04-16 04:40 | -38.57274 | -67.21657 | 25052 ft | 451 kts | 60° |
| 2026-04-16 04:40 | -38.55777 | -67.18123 | 25414 ft | 455 kts | 60° |
| 2026-04-16 04:40 | -38.54267 | -67.14564 | 25827 ft | 457 kts | 60° |
| 2026-04-16 04:40 | -38.53153 | -67.11938 | 26113 ft | 459 kts | 60° |
| 2026-04-16 04:41 | -38.51636 | -67.08368 | 26485 ft | 461 kts | 60° |
| 2026-04-16 04:41 | -38.50091 | -67.04738 | 26852 ft | 464 kts | 60° |
| 2026-04-16 04:41 | -38.48535 | -67.01062 | 27209 ft | 466 kts | 61° |
| 2026-04-16 04:41 | -38.47009 | -66.97452 | 27545 ft | 468 kts | 60° |
| 2026-04-16 04:42 | -38.45454 | -66.93797 | 27872 ft | 470 kts | 60° |
| 2026-04-16 04:42 | -38.44025 | -66.90452 | 28160 ft | 472 kts | 60° |
| 2026-04-16 04:42 | -38.42530 | -66.86965 | 28456 ft | 474 kts | 60° |
| 2026-04-16 04:42 | -38.40961 | -66.83311 | 28746 ft | 476 kts | 60° |
| 2026-04-16 04:43 | -38.39380 | -66.79638 | 29017 ft | 478 kts | 60° |
| 2026-04-16 04:43 | -38.37761 | -66.75879 | 29274 ft | 481 kts | 61° |
| 2026-04-16 04:43 | -38.36149 | -66.72139 | 29548 ft | 482 kts | 61° |
| 2026-04-16 04:43 | -38.34546 | -66.68423 | 29792 ft | 484 kts | 61° |
| 2026-04-16 04:44 | -38.32924 | -66.64628 | 30076 ft | 485 kts | 62° |
| 2026-04-16 04:44 | -38.31323 | -66.60827 | 30333 ft | 486 kts | 62° |
| 2026-04-16 04:44 | -38.29718 | -66.57025 | 30649 ft | 486 kts | 62° |
| 2026-04-16 04:44 | -38.28094 | -66.53184 | 30966 ft | 486 kts | 62° |
| 2026-04-16 04:45 | -38.26508 | -66.49441 | 31280 ft | 485 kts | 62° |
| 2026-04-16 04:45 | -38.24907 | -66.45666 | 31609 ft | 484 kts | 62° |
| 2026-04-16 04:45 | -38.23312 | -66.41913 | 31941 ft | 482 kts | 62° |
| 2026-04-16 04:45 | -38.21711 | -66.38149 | 32162 ft | 483 kts | 62° |
| 2026-04-16 04:46 | -38.20107 | -66.34384 | 32426 ft | 483 kts | 62° |
| 2026-04-16 04:46 | -38.18500 | -66.30617 | 32732 ft | 482 kts | 62° |
| 2026-04-16 04:46 | -38.16901 | -66.26858 | 33013 ft | 482 kts | 62° |
| 2026-04-16 04:46 | -38.15343 | -66.23159 | 33280 ft | 481 kts | 62° |
| 2026-04-16 04:47 | -38.13761 | -66.19415 | 33557 ft | 480 kts | 62° |
| 2026-04-16 04:47 | -38.12174 | -66.15675 | 33854 ft | 479 kts | 62° |
| 2026-04-16 04:47 | -38.10598 | -66.11968 | 34097 ft | 479 kts | 62° |
| 2026-04-16 04:47 | -38.09013 | -66.08248 | 34342 ft | 478 kts | 61° |
| 2026-04-16 04:48 | -38.07959 | -66.05781 | 34505 ft | 478 kts | 61° |
| 2026-04-16 04:48 | -38.06374 | -66.02072 | 34744 ft | 477 kts | 61° |
| 2026-04-16 04:48 | -38.04791 | -65.98374 | 34976 ft | 477 kts | 61° |
| 2026-04-16 04:48 | -38.03205 | -65.94677 | 35202 ft | 477 kts | 61° |
| 2026-04-16 04:49 | -38.01616 | -65.90977 | 35427 ft | 476 kts | 61° |
| 2026-04-16 04:49 | -38.00032 | -65.87293 | 35648 ft | 476 kts | 61° |
| 2026-04-16 04:49 | -37.98443 | -65.83603 | 35864 ft | 475 kts | 61° |
| 2026-04-16 04:49 | -37.96852 | -65.79911 | 36072 ft | 475 kts | 61° |
| 2026-04-16 04:50 | -37.95272 | -65.76250 | 36293 ft | 474 kts | 61° |
| 2026-04-16 04:50 | -37.93684 | -65.72575 | 36494 ft | 474 kts | 60° |
| 2026-04-16 04:50 | -37.92092 | -65.68893 | 36724 ft | 473 kts | 60° |
| 2026-04-16 04:50 | -37.90512 | -65.65247 | 36922 ft | 472 kts | 60° |
| 2026-04-16 04:51 | -37.87319 | -65.57889 | 37000 ft | 479 kts | 60° |
| 2026-04-16 04:51 | -37.84090 | -65.50463 | 37005 ft | 487 kts | 60° |
| 2026-04-16 04:52 | -37.80794 | -65.42902 | 37006 ft | 492 kts | 60° |
| 2026-04-16 04:52 | -37.77473 | -65.35303 | 37006 ft | 496 kts | 60° |
| 2026-04-16 04:53 | -37.74124 | -65.27656 | 37007 ft | 498 kts | 60° |
| 2026-04-16 04:53 | -37.70756 | -65.19983 | 37008 ft | 500 kts | 60° |
| 2026-04-16 04:54 | -37.67369 | -65.12288 | 37008 ft | 501 kts | 59° |
| 2026-04-16 04:54 | -37.63976 | -65.04597 | 37035 ft | 502 kts | 59° |
| 2026-04-16 04:55 | -37.60573 | -64.96900 | 37074 ft | 502 kts | 59° |
| 2026-04-16 04:55 | -37.57170 | -64.89222 | 37119 ft | 502 kts | 59° |
| 2026-04-16 04:56 | -37.53757 | -64.81540 | 37165 ft | 502 kts | 59° |
| 2026-04-16 04:56 | -37.50340 | -64.73865 | 37213 ft | 501 kts | 59° |
| 2026-04-16 04:57 | -37.46952 | -64.66216 | 37315 ft | 500 kts | 59° |
| 2026-04-16 04:57 | -37.43529 | -64.58565 | 37356 ft | 500 kts | 59° |
| 2026-04-16 04:58 | -37.40100 | -64.50938 | 37397 ft | 500 kts | 58° |
| 2026-04-16 04:58 | -37.36671 | -64.43330 | 37437 ft | 500 kts | 58° |
| 2026-04-16 04:59 | -37.33250 | -64.35755 | 37476 ft | 499 kts | 58° |
| 2026-04-16 04:59 | -37.29768 | -64.28161 | 37541 ft | 499 kts | 58° |
| 2026-04-16 05:00 | -37.26323 | -64.20669 | 37632 ft | 497 kts | 57° |
| 2026-04-16 05:00 | -37.22846 | -64.13130 | 37515 ft | 497 kts | 57° |
| 2026-04-16 05:01 | -37.21127 | -64.09407 | 37260 ft | 485 kts | 57° |
| 2026-04-16 05:01 | -37.19454 | -64.05791 | 37048 ft | 476 kts | 57° |
| 2026-04-16 05:01 | -37.16170 | -63.98687 | 37015 ft | 470 kts | 57° |
| 2026-04-16 05:02 | -37.12903 | -63.91557 | 37013 ft | 473 kts | 57° |
| 2026-04-16 05:02 | -37.09597 | -63.84384 | 37013 ft | 473 kts | 57° |
| 2026-04-16 05:03 | -37.06300 | -63.77262 | 37017 ft | 473 kts | 57° |
| 2026-04-16 05:04 | -37.01592 | -63.67126 | 37013 ft | 468 kts | 56° |
| 2026-04-16 05:04 | -36.98303 | -63.60068 | 37013 ft | 468 kts | 56° |
| 2026-04-16 05:05 | -36.95012 | -63.53025 | 37012 ft | 469 kts | 56° |
| 2026-04-16 05:05 | -36.91706 | -63.45964 | 37007 ft | 469 kts | 56° |
| 2026-04-16 05:06 | -36.88402 | -63.38924 | 37010 ft | 469 kts | 56° |
| 2026-04-16 05:06 | -36.85133 | -63.31972 | 37011 ft | 469 kts | 56° |
| 2026-04-16 05:07 | -36.81823 | -63.24947 | 37007 ft | 469 kts | 56° |
| 2026-04-16 05:07 | -36.78498 | -63.17906 | 37005 ft | 464 kts | 55° |
| 2026-04-16 05:08 | -36.75250 | -63.11044 | 37005 ft | 460 kts | 55° |
| 2026-04-16 05:08 | -36.71990 | -63.04169 | 37008 ft | 464 kts | 55° |
| 2026-04-16 05:09 | -36.70034 | -63.00051 | 37004 ft | 465 kts | 55° |
| 2026-04-16 05:09 | -36.66741 | -62.93132 | 37004 ft | 464 kts | 55° |
| 2026-04-16 05:10 | -36.63441 | -62.86209 | 37002 ft | 464 kts | 55° |
| 2026-04-16 05:10 | -36.60114 | -62.79245 | 36998 ft | 464 kts | 55° |
| 2026-04-16 05:11 | -36.56821 | -62.72366 | 36997 ft | 464 kts | 54° |
| 2026-04-16 05:11 | -36.53529 | -62.65503 | 36996 ft | 459 kts | 54° |
| 2026-04-16 05:12 | -36.50255 | -62.58694 | 36997 ft | 460 kts | 54° |
| 2026-04-16 05:12 | -36.46956 | -62.51845 | 36995 ft | 460 kts | 53° |
| 2026-04-16 05:13 | -36.43662 | -62.45020 | 36997 ft | 460 kts | 53° |
| 2026-04-16 05:13 | -36.40367 | -62.38206 | 36999 ft | 460 kts | 53° |
| 2026-04-16 05:14 | -36.37072 | -62.31408 | 37002 ft | 460 kts | 53° |
| 2026-04-16 05:14 | -36.34459 | -62.26024 | 37003 ft | 460 kts | 53° |
| 2026-04-16 05:15 | -36.31153 | -62.19226 | 37007 ft | 458 kts | 53° |
| 2026-04-16 05:15 | -36.27891 | -62.12523 | 37002 ft | 450 kts | 53° |
| 2026-04-16 05:16 | -36.24649 | -62.05840 | 37004 ft | 448 kts | 53° |
| 2026-04-16 05:16 | -36.21429 | -61.99261 | 37004 ft | 450 kts | 53° |
| 2026-04-16 05:17 | -36.18159 | -61.92605 | 37002 ft | 450 kts | 53° |
| 2026-04-16 05:17 | -36.14909 | -61.86004 | 37003 ft | 450 kts | 53° |
| 2026-04-16 05:18 | -36.11647 | -61.79382 | 37005 ft | 450 kts | 53° |
| 2026-04-16 05:18 | -36.08387 | -61.72769 | 37004 ft | 449 kts | 53° |
| 2026-04-16 05:19 | -36.05132 | -61.66175 | 37005 ft | 449 kts | 53° |
| 2026-04-16 05:19 | -36.02415 | -61.60620 | 37006 ft | 449 kts | 53° |
| 2026-04-16 05:20 | -36.00149 | -61.56022 | 37007 ft | 449 kts | 53° |
| 2026-04-16 05:20 | -35.96894 | -61.49453 | 37006 ft | 449 kts | 53° |
| 2026-04-16 05:21 | -35.93627 | -61.42881 | 37008 ft | 448 kts | 53° |
| 2026-04-16 05:21 | -35.90362 | -61.36325 | 37015 ft | 448 kts | 53° |
| 2026-04-16 05:22 | -35.87095 | -61.29745 | 37017 ft | 448 kts | 53° |
| 2026-04-16 05:22 | -35.83837 | -61.23171 | 37014 ft | 448 kts | 53° |
| 2026-04-16 05:23 | -35.80567 | -61.16587 | 37014 ft | 449 kts | 53° |
| 2026-04-16 05:23 | -35.77301 | -61.10026 | 37017 ft | 449 kts | 53° |
| 2026-04-16 05:24 | -35.74052 | -61.03515 | 37019 ft | 449 kts | 53° |
| 2026-04-16 05:24 | -35.70763 | -60.96933 | 37020 ft | 450 kts | 53° |
| 2026-04-16 05:25 | -35.68040 | -60.91440 | 37020 ft | 450 kts | 53° |
| 2026-04-16 05:25 | -35.64784 | -60.84886 | 37021 ft | 450 kts | 53° |
| 2026-04-16 05:26 | -35.61509 | -60.78324 | 37022 ft | 450 kts | 53° |
| 2026-04-16 05:26 | -35.59150 | -60.73611 | 37022 ft | 450 kts | 53° |
| 2026-04-16 05:27 | -35.55837 | -60.67006 | 37022 ft | 454 kts | 53° |
| 2026-04-16 05:27 | -35.52520 | -60.60409 | 37022 ft | 455 kts | 53° |
| 2026-04-16 05:28 | -35.49184 | -60.53786 | 37023 ft | 454 kts | 53° |
| 2026-04-16 05:28 | -35.45874 | -60.47230 | 37023 ft | 454 kts | 53° |
| 2026-04-16 05:29 | -35.42527 | -60.40613 | 37023 ft | 454 kts | 53° |
| 2026-04-16 05:29 | -35.39201 | -60.34049 | 37023 ft | 454 kts | 53° |
| 2026-04-16 05:30 | -35.35853 | -60.27456 | 37023 ft | 454 kts | 53° |
| 2026-04-16 05:30 | -35.32514 | -60.20893 | 37023 ft | 454 kts | 53° |
| 2026-04-16 05:31 | -35.29606 | -60.15185 | 37023 ft | 453 kts | 54° |
| 2026-04-16 05:31 | -35.26271 | -60.08652 | 37023 ft | 453 kts | 54° |
| 2026-04-16 05:32 | -35.22924 | -60.02108 | 37019 ft | 454 kts | 54° |
| 2026-04-16 05:32 | -35.19581 | -59.95578 | 37007 ft | 456 kts | 54° |
| 2026-04-16 05:33 | -35.16234 | -59.89013 | 37000 ft | 455 kts | 54° |
| 2026-04-16 05:33 | -35.12848 | -59.82430 | 37003 ft | 456 kts | 54° |
| 2026-04-16 05:34 | -35.09464 | -59.75877 | 37002 ft | 455 kts | 54° |
| 2026-04-16 05:34 | -35.06084 | -59.69344 | 37001 ft | 451 kts | 55° |
| 2026-04-16 05:35 | -35.03121 | -59.62653 | 36999 ft | 448 kts | 65° |
| 2026-04-16 05:35 | -35.01312 | -59.55340 | 37000 ft | 453 kts | 74° |
| 2026-04-16 05:36 | -34.99916 | -59.47826 | 36999 ft | 453 kts | 75° |
| 2026-04-16 05:36 | -34.99129 | -59.43556 | 36984 ft | 452 kts | 73° |
| 2026-04-16 05:37 | -34.98184 | -59.38432 | 36946 ft | 451 kts | 75° |
| 2026-04-16 05:37 | -34.96811 | -59.30989 | 36919 ft | 451 kts | 74° |
| 2026-04-16 05:38 | -34.95429 | -59.23508 | 36907 ft | 452 kts | 75° |
| 2026-04-16 05:38 | -34.94062 | -59.15986 | 36905 ft | 454 kts | 75° |
| 2026-04-16 05:39 | -34.92695 | -59.08505 | 36904 ft | 455 kts | 75° |
| 2026-04-16 05:39 | -34.91299 | -59.00938 | 36910 ft | 455 kts | 75° |
| 2026-04-16 05:40 | -34.89907 | -58.93439 | 36911 ft | 456 kts | 75° |
| 2026-04-16 05:40 | -34.88520 | -58.85880 | 36910 ft | 456 kts | 75° |
| 2026-04-16 05:41 | -34.87125 | -58.78413 | 36375 ft | 451 kts | 75° |
| 2026-04-16 05:41 | -34.86419 | -58.74671 | 35707 ft | 451 kts | 75° |
| 2026-04-16 05:41 | -34.85962 | -58.72254 | 35297 ft | 451 kts | 75° |
| 2026-04-16 05:41 | -34.85256 | -58.68523 | 34793 ft | 447 kts | 75° |
| 2026-04-16 05:42 | -34.84768 | -58.65955 | 34448 ft | 445 kts | 75° |
| 2026-04-16 05:42 | -34.84602 | -58.65075 | 34326 ft | 444 kts | 75° |
| 2026-04-16 05:42 | -34.84239 | -58.63179 | 34074 ft | 442 kts | 75° |
| 2026-04-16 05:42 | -34.84026 | -58.62051 | 33921 ft | 441 kts | 75° |
| 2026-04-16 05:43 | -34.83336 | -58.58421 | 33445 ft | 437 kts | 75° |
| 2026-04-16 05:43 | -34.82657 | -58.54847 | 32988 ft | 432 kts | 75° |
| 2026-04-16 05:43 | -34.82096 | -58.51256 | 32526 ft | 429 kts | 79° |
| 2026-04-16 05:43 | -34.81689 | -58.47649 | 32066 ft | 426 kts | 81° |
| 2026-04-16 05:44 | -34.81347 | -58.44086 | 31621 ft | 421 kts | 81° |
| 2026-04-16 05:44 | -34.81009 | -58.40600 | 31186 ft | 417 kts | 81° |
| 2026-04-16 05:44 | -34.80661 | -58.37087 | 30743 ft | 413 kts | 81° |
| 2026-04-16 05:44 | -34.80314 | -58.33647 | 30310 ft | 410 kts | 81° |
| 2026-04-16 05:45 | -34.79958 | -58.30167 | 29882 ft | 406 kts | 81° |
| 2026-04-16 05:45 | -34.79609 | -58.26793 | 29461 ft | 404 kts | 81° |
| 2026-04-16 05:45 | -34.79259 | -58.23431 | 29034 ft | 401 kts | 81° |
| 2026-04-16 05:45 | -34.78903 | -58.20028 | 28599 ft | 398 kts | 80° |
| 2026-04-16 05:46 | -34.78552 | -58.16689 | 28172 ft | 395 kts | 80° |
| 2026-04-16 05:46 | -34.78209 | -58.13438 | 27755 ft | 392 kts | 80° |
| 2026-04-16 05:46 | -34.77928 | -58.10716 | 27400 ft | 390 kts | 81° |
| 2026-04-16 05:46 | -34.77618 | -58.07669 | 26996 ft | 388 kts | 81° |
| 2026-04-16 05:47 | -34.77283 | -58.04413 | 26566 ft | 386 kts | 81° |
| 2026-04-16 05:47 | -34.76946 | -58.01174 | 26139 ft | 385 kts | 81° |
| 2026-04-16 05:47 | -34.76608 | -57.97952 | 25721 ft | 383 kts | 81° |
| 2026-04-16 05:47 | -34.76270 | -57.94746 | 25300 ft | 382 kts | 81° |
| 2026-04-16 05:48 | -34.75929 | -57.91540 | 24879 ft | 380 kts | 81° |
| 2026-04-16 05:48 | -34.75602 | -57.88355 | 24460 ft | 379 kts | 81° |
| 2026-04-16 05:48 | -34.75270 | -57.85165 | 24027 ft | 378 kts | 81° |
| 2026-04-16 05:48 | -34.74936 | -57.82024 | 23596 ft | 378 kts | 81° |
| 2026-04-16 05:49 | -34.74595 | -57.78858 | 23164 ft | 378 kts | 82° |
| 2026-04-16 05:49 | -34.74251 | -57.75685 | 22734 ft | 378 kts | 82° |
| 2026-04-16 05:49 | -34.73908 | -57.72536 | 22313 ft | 377 kts | 82° |
| 2026-04-16 05:49 | -34.73555 | -57.69325 | 21884 ft | 377 kts | 82° |
| 2026-04-16 05:50 | -34.73213 | -57.66213 | 21470 ft | 376 kts | 82° |
| 2026-04-16 05:50 | -34.72864 | -57.63052 | 21048 ft | 375 kts | 82° |
| 2026-04-16 05:50 | -34.72519 | -57.59928 | 20631 ft | 374 kts | 82° |
| 2026-04-16 05:50 | -34.72170 | -57.56780 | 20213 ft | 373 kts | 82° |
| 2026-04-16 05:51 | -34.71851 | -57.53693 | 19803 ft | 372 kts | 84° |
| 2026-04-16 05:51 | -34.71757 | -57.50524 | 19386 ft | 371 kts | 91° |
| 2026-04-16 05:51 | -34.71916 | -57.47428 | 18979 ft | 369 kts | 95° |
| 2026-04-16 05:51 | -34.72175 | -57.44332 | 18568 ft | 368 kts | 96° |
| 2026-04-16 05:52 | -34.72448 | -57.41235 | 18158 ft | 367 kts | 96° |